Pagrindinis puslapis
METAR-TAF:

METAR-TAF

Oro uostai :

Karpathos, Graikija

platuma: 35-24-51N, ilguma: 027-08-54E, Aukštis: 6 m

Dabartinis oras

Ataskaita buvo paskelbta 23 minutes, ne 23:50 UTC
Vėjas 4 kt iš Šiaurės Vakarų
Temperatūra 20°C
Drėgmė 88%
Slėgis 1014 hPa
lietus

METAR: LGKP 182350Z AUTO 32004KT //// -RA ////// 20/18 Q1014 RE//

Laikas: 03:13 (00:13 UTC)

Prognozė

Ataskaita buvo paskelbta 1 valandą ir 13 minutes, ne 23:00 UTC
Prognozė galioja nuo 19 metu 00 UTC su 19 metu 09 UTC
Vėjas 8 kt iš Šiaurės Vakarų
Matomumas 10 km arba daugiau
Mažai debesys ne aukštis 1800 ft

TAF: LGKP 182300Z 1900/1909 31008KT 9999 FEW018

Orai ataskaitas ir orų prognozės (METAR, TAF).

turimą stotys yra geltonos ir raudonos taškus žemėlapyje.

Perkelti pele per norėdami pamatyti stoties vardą.

Tada spustelėkite, norėdami matyti oro stebėjimo ir prognozės.

Norėdami pakeisti žemėlapį: spustelėkite ant žalios mygtukų su juodo kryžiaus žemyn,; žalią mygtuką su brūkšneliu, jei norite nutolinti; arba žalių rodyklių gretimoms žemėlapius.


METAR-TAF: